createdAt,value
2022-11-07T00:00:26.553Z,10.36
2022-11-07T00:03:29.039Z,10.33
2022-11-07T00:06:32.178Z,10.61
2022-11-07T00:09:34.985Z,10.17
2022-11-07T00:12:37.486Z,10.43
2022-11-07T00:15:41.330Z,10.34
2022-11-07T00:18:43.815Z,10.25
2022-11-07T00:21:46.473Z,10.34
2022-11-07T00:24:48.966Z,10.35
2022-11-07T00:27:51.468Z,10.25
2022-11-07T00:30:55.292Z,10.11
2022-11-07T00:33:58.471Z,10.23
2022-11-07T00:37:00.985Z,10.15
2022-11-07T00:40:03.706Z,10.14
2022-11-07T00:43:06.201Z,10.08
2022-11-07T00:46:11.747Z,10.32
2022-11-07T00:49:14.234Z,10.25
2022-11-07T00:52:16.752Z,10.54
2022-11-07T00:55:19.228Z,10.46
2022-11-07T00:58:21.703Z,10.39
2022-11-07T01:01:27.380Z,10.39
2022-11-07T01:04:47.478Z,10.67
2022-11-07T01:07:49.961Z,10.38
2022-11-07T01:10:52.588Z,10.37
2022-11-07T01:13:56.393Z,10.33
2022-11-07T01:17:00.225Z,10.51
2022-11-07T01:20:02.741Z,10.38
2022-11-07T01:23:05.493Z,10.51
2022-11-07T01:26:10.741Z,10.40
2022-11-07T01:29:13.545Z,10.44
2022-11-07T01:32:17.494Z,10.47
2022-11-07T01:35:19.982Z,10.55
2022-11-07T01:38:22.575Z,10.59
2022-11-07T01:41:28.197Z,10.69
2022-11-07T01:44:52.465Z,10.57
2022-11-07T01:47:59.632Z,10.64
2022-11-07T01:51:02.379Z,10.87
2022-11-07T01:54:05.874Z,10.77
2022-11-07T01:57:14.007Z,10.73
2022-11-07T02:00:20.302Z,10.79
2022-11-07T02:03:24.337Z,10.67
2022-11-07T02:06:36.214Z,10.73
2022-11-07T02:09:38.750Z,10.86
2022-11-07T02:12:41.639Z,10.82
2022-11-07T02:15:44.244Z,10.77
2022-11-07T02:18:48.400Z,10.82
2022-11-07T02:21:59.432Z,10.75
2022-11-07T02:25:05.876Z,10.83
2022-11-07T02:28:11.136Z,10.99
2022-11-07T02:31:13.632Z,11.12
2022-11-07T02:34:16.141Z,11.13
2022-11-07T02:37:24.761Z,10.88
2022-11-07T02:40:31.415Z,10.74
2022-11-07T02:43:36.095Z,10.86
2022-11-07T02:46:39.033Z,10.85
2022-11-07T02:49:41.541Z,10.81
2022-11-07T02:52:44.341Z,10.98
2022-11-07T02:55:48.171Z,11.00
2022-11-07T02:58:52.407Z,10.93
2022-11-07T03:01:55.119Z,10.89
2022-11-07T03:04:58.497Z,11.12
2022-11-07T03:08:01.002Z,11.17
2022-11-07T03:11:05.869Z,10.98
2022-11-07T03:14:08.381Z,10.95
2022-11-07T03:17:11.098Z,11.05
2022-11-07T03:20:13.740Z,10.99
2022-11-07T03:23:16.847Z,11.06
2022-11-07T03:26:21.472Z,11.18
2022-11-07T03:29:23.950Z,11.45
2022-11-07T03:32:26.614Z,11.32
2022-11-07T03:35:29.127Z,11.19
2022-11-07T03:38:31.637Z,11.32
2022-11-07T03:41:35.459Z,11.30
2022-11-07T03:44:37.970Z,11.41
2022-11-07T03:47:42.596Z,11.22
2022-11-07T03:50:45.083Z,11.40
2022-11-07T03:53:47.569Z,11.34
2022-11-07T03:56:51.407Z,11.37
2022-11-07T03:59:53.909Z,11.53
2022-11-07T04:02:56.472Z,11.41
2022-11-07T04:05:59.688Z,11.36
2022-11-07T04:09:02.172Z,11.45
2022-11-07T04:12:32.655Z,11.53
2022-11-07T04:15:52.868Z,11.50
2022-11-07T04:18:55.491Z,11.45
2022-11-07T04:21:57.987Z,11.44
2022-11-07T04:25:00.524Z,11.63
2022-11-07T04:28:03.828Z,11.56
2022-11-07T04:31:06.593Z,11.43
2022-11-07T04:34:09.070Z,11.61
2022-11-07T04:37:11.590Z,11.51
2022-11-07T04:40:14.844Z,11.71
2022-11-07T04:43:18.651Z,11.72
2022-11-07T04:46:23.097Z,11.65
2022-11-07T04:49:25.617Z,11.67
2022-11-07T04:52:28.108Z,11.68
2022-11-07T04:55:31.493Z,11.62
2022-11-07T04:58:35.657Z,11.50
2022-11-07T05:01:38.228Z,11.52
2022-11-07T05:04:41.158Z,11.65
2022-11-07T05:07:44.311Z,11.59
2022-11-07T05:10:46.862Z,11.49
2022-11-07T05:13:50.705Z,11.45
2022-11-07T05:16:55.508Z,11.39
2022-11-07T05:19:57.988Z,11.45
2022-11-07T05:23:17.634Z,11.60
2022-11-07T05:26:20.537Z,11.44
2022-11-07T05:29:24.350Z,11.41
2022-11-07T05:32:26.854Z,11.40
2022-11-07T05:35:29.348Z,11.43
2022-11-07T05:38:31.823Z,11.27
2022-11-07T05:41:36.848Z,11.26
2022-11-07T05:44:40.672Z,11.36
2022-11-07T05:47:43.209Z,11.44
2022-11-07T05:50:45.696Z,11.25
2022-11-07T05:53:48.217Z,11.38
2022-11-07T05:56:50.704Z,11.37
2022-11-07T05:59:54.522Z,11.47
2022-11-07T06:03:00.362Z,11.46
2022-11-07T06:06:02.990Z,11.26
2022-11-07T06:09:05.724Z,11.32
2022-11-07T06:12:08.510Z,11.32
2022-11-07T06:15:12.715Z,11.44
2022-11-07T06:18:16.941Z,11.42
2022-11-07T06:21:19.440Z,11.32
2022-11-07T06:24:21.925Z,11.47
2022-11-07T06:27:24.445Z,11.51
2022-11-07T06:30:28.668Z,11.55
2022-11-07T06:33:31.317Z,11.43
2022-11-07T06:36:33.813Z,11.54
2022-11-07T06:39:36.301Z,11.65
2022-11-07T06:42:39.216Z,11.57
2022-11-07T06:45:44.233Z,11.34
2022-11-07T06:48:46.952Z,11.42
2022-11-07T06:51:49.461Z,11.29
2022-11-07T06:54:51.943Z,11.40
2022-11-07T06:57:58.816Z,11.46
2022-11-07T07:01:04.201Z,11.29
2022-11-07T07:04:06.816Z,11.25
2022-11-07T07:07:09.327Z,11.17
2022-11-07T07:10:11.847Z,11.30
2022-11-07T07:13:15.293Z,11.36
2022-11-07T07:16:19.242Z,11.20
2022-11-07T07:19:21.727Z,11.16
2022-11-07T07:22:24.222Z,11.17
2022-11-07T07:25:27.320Z,11.11
2022-11-07T07:28:29.890Z,11.33
2022-11-07T07:31:33.735Z,11.43
2022-11-07T07:34:36.262Z,11.36
2022-11-07T07:37:38.765Z,11.44
2022-11-07T07:40:41.507Z,11.52
2022-11-07T07:43:44.553Z,11.61
2022-11-07T07:46:48.419Z,11.50
2022-11-07T07:49:50.907Z,11.59
2022-11-07T07:52:57.162Z,11.74
2022-11-07T07:56:02.626Z,11.70
2022-11-07T07:59:05.155Z,11.72
2022-11-07T08:02:11.367Z,11.68
2022-11-07T08:05:15.302Z,11.84
2022-11-07T08:08:17.784Z,11.94
2022-11-07T08:11:20.288Z,11.94
2022-11-07T08:14:22.801Z,12.00
2022-11-07T08:17:26.647Z,11.92
2022-11-07T08:20:29.443Z,11.94
2022-11-07T08:23:32.398Z,12.18
2022-11-07T08:26:35.212Z,12.26
2022-11-07T08:29:37.696Z,12.26
2022-11-07T08:32:41.504Z,12.32
2022-11-07T08:35:43.969Z,12.31
2022-11-07T08:38:46.454Z,12.39
2022-11-07T08:41:48.927Z,12.42
2022-11-07T08:44:51.417Z,12.42
2022-11-07T08:47:58.893Z,12.54
2022-11-07T08:51:02.918Z,12.56
2022-11-07T08:54:05.643Z,12.58
2022-11-07T08:57:08.136Z,12.45
2022-11-07T09:00:12.047Z,12.50
2022-11-07T09:03:45.095Z,12.66
2022-11-07T09:06:38.381Z,12.69
2022-11-07T09:09:40.907Z,12.70
2022-11-07T09:12:47.131Z,12.75
2022-11-07T09:15:51.789Z,12.77
2022-11-07T09:18:56.366Z,12.78
2022-11-07T09:21:58.906Z,12.84
2022-11-07T09:25:01.400Z,12.96
2022-11-07T09:28:04.224Z,13.08
2022-11-07T09:31:07.125Z,12.96
2022-11-07T09:34:10.970Z,12.94
2022-11-07T09:37:13.566Z,13.03
2022-11-07T09:40:25.214Z,13.13
2022-11-07T09:43:48.153Z,13.22
2022-11-07T09:47:04.801Z,13.34
2022-11-07T09:50:15.059Z,13.69
2022-11-07T09:53:23.273Z,13.76
2022-11-07T09:56:27.770Z,13.86
2022-11-07T09:59:37.169Z,13.96
2022-11-07T10:02:44.166Z,13.86
2022-11-07T10:05:55.747Z,13.70
2022-11-07T10:09:11.945Z,13.72
2022-11-07T10:12:25.088Z,13.66
2022-11-07T10:15:34.564Z,13.45
2022-11-07T10:18:51.369Z,13.46
2022-11-07T10:22:12.555Z,13.34
2022-11-07T10:25:21.247Z,13.37
2022-11-07T10:28:26.788Z,13.43
2022-11-07T10:31:34.968Z,13.49
2022-11-07T10:34:42.596Z,13.54
2022-11-07T10:37:54.686Z,13.54
2022-11-07T10:40:57.561Z,13.48
2022-11-07T10:44:04.219Z,13.50
2022-11-07T10:47:16.530Z,13.65
2022-11-07T10:50:20.997Z,13.67
2022-11-07T10:53:26.455Z,13.79
2022-11-07T10:56:29.085Z,13.71
2022-11-07T10:59:36.370Z,13.67
2022-11-07T11:02:48.424Z,13.78
2022-11-07T11:05:51.327Z,13.62
2022-11-07T11:08:55.689Z,13.60
2022-11-07T11:11:58.296Z,13.75
2022-11-07T11:15:06.495Z,13.80
2022-11-07T11:18:19.151Z,13.81
2022-11-07T11:21:22.062Z,13.75
2022-11-07T11:24:35.651Z,13.66
2022-11-07T11:27:39.600Z,13.75
2022-11-07T11:30:43.024Z,13.77
2022-11-07T11:33:50.236Z,13.73
2022-11-07T11:36:58.593Z,13.75
2022-11-07T11:40:10.165Z,13.72
2022-11-07T11:43:21.082Z,13.69
2022-11-07T11:46:28.607Z,13.72
2022-11-07T11:49:36.443Z,13.54
2022-11-07T11:52:39.380Z,13.47
2022-11-07T11:55:52.323Z,13.48
2022-11-07T11:59:09.438Z,13.58
2022-11-07T12:02:34.367Z,13.57
2022-11-07T12:06:07.441Z,13.54
2022-11-07T12:09:32.981Z,13.58
2022-11-07T12:12:57.559Z,13.57
2022-11-07T12:16:09.607Z,13.55
2022-11-07T12:19:24.695Z,13.66
2022-11-07T12:22:39.830Z,13.75
2022-11-07T12:25:45.648Z,13.81
2022-11-07T12:28:56.085Z,13.70
2022-11-07T12:32:14.436Z,13.82
2022-11-07T12:35:30.053Z,13.71
2022-11-07T12:39:01.237Z,13.63
2022-11-07T12:42:08.966Z,13.69
2022-11-07T12:45:23.101Z,13.71
2022-11-07T12:48:54.253Z,13.70
2022-11-07T12:52:03.675Z,13.75
2022-11-07T12:55:21.560Z,13.93
2022-11-07T12:58:29.103Z,13.98
2022-11-07T13:01:40.679Z,13.75
2022-11-07T13:04:50.009Z,13.64
2022-11-07T13:07:59.724Z,13.76
2022-11-07T13:11:08.142Z,13.67
2022-11-07T13:14:24.249Z,13.66
2022-11-07T13:17:40.402Z,13.76
2022-11-07T13:20:42.886Z,13.75
2022-11-07T13:23:46.321Z,13.77
2022-11-07T13:26:48.981Z,13.91
2022-11-07T13:29:51.973Z,13.85
2022-11-07T13:32:55.819Z,13.96
2022-11-07T13:36:00.319Z,14.02
2022-11-07T13:39:07.689Z,14.17
2022-11-07T13:42:16.915Z,14.14
2022-11-07T13:45:27.176Z,14.11
2022-11-07T13:48:36.599Z,13.92
2022-11-07T13:51:43.470Z,13.99
2022-11-07T13:54:53.270Z,14.03
2022-11-07T13:57:58.726Z,13.98
2022-11-07T14:01:09.847Z,13.80
2022-11-07T14:04:16.950Z,13.76
2022-11-07T14:07:24.844Z,13.74
2022-11-07T14:10:32.889Z,13.85
2022-11-07T14:13:41.251Z,13.59
2022-11-07T14:16:46.865Z,13.81
2022-11-07T14:19:50.702Z,13.81
2022-11-07T14:22:55.834Z,13.63
2022-11-07T14:26:00.672Z,13.47
2022-11-07T14:29:04.020Z,13.49
2022-11-07T14:32:08.268Z,13.44
2022-11-07T14:35:12.101Z,13.27
2022-11-07T14:38:20.201Z,13.32
2022-11-07T14:41:24.096Z,13.36
2022-11-07T14:44:47.547Z,13.62
2022-11-07T14:47:54.715Z,13.62
2022-11-07T14:51:00.675Z,13.71
2022-11-07T14:54:07.814Z,13.54
2022-11-07T14:57:12.647Z,13.44
2022-11-07T15:00:17.611Z,13.57
2022-11-07T15:03:22.607Z,13.71
2022-11-07T15:06:33.167Z,13.62
2022-11-07T15:09:35.692Z,13.66
2022-11-07T15:12:50.760Z,13.47
2022-11-07T15:16:01.851Z,13.56
2022-11-07T15:19:07.043Z,13.60
2022-11-07T15:22:29.255Z,13.62
2022-11-07T15:25:35.821Z,13.68
2022-11-07T15:28:46.454Z,13.60
2022-11-07T15:31:49.891Z,13.43
2022-11-07T15:35:17.024Z,13.38
2022-11-07T15:38:21.419Z,13.49
2022-11-07T15:41:23.928Z,13.61
2022-11-07T15:44:26.461Z,13.48
2022-11-07T15:47:30.293Z,13.46
2022-11-07T15:50:44.441Z,13.40
2022-11-07T15:53:48.269Z,13.39
2022-11-07T15:56:54.540Z,13.43
2022-11-07T16:00:02.045Z,13.45
2022-11-07T16:03:04.852Z,13.33
2022-11-07T16:06:16.724Z,13.34
2022-11-07T16:09:22.492Z,13.30
2022-11-07T16:12:24.997Z,13.38
2022-11-07T16:15:28.452Z,13.34
2022-11-07T16:18:42.823Z,13.37
2022-11-07T16:21:46.627Z,13.45
2022-11-07T16:24:50.455Z,13.25
2022-11-07T16:27:55.729Z,13.36
2022-11-07T16:30:58.667Z,13.26
2022-11-07T16:34:01.606Z,13.25
2022-11-07T16:37:04.113Z,13.32
2022-11-07T16:40:13.190Z,13.43
2022-11-07T16:43:16.026Z,13.37
2022-11-07T16:46:21.200Z,13.45
2022-11-07T16:49:27.258Z,13.52
2022-11-07T16:52:29.772Z,13.59
2022-11-07T16:55:33.640Z,13.49
2022-11-07T16:58:36.486Z,13.46
2022-11-07T17:01:39.076Z,13.48
2022-11-07T17:04:41.643Z,13.55
2022-11-07T17:07:44.136Z,13.59
2022-11-07T17:10:48.378Z,13.58
2022-11-07T17:13:50.877Z,13.55
2022-11-07T17:16:53.405Z,13.46
2022-11-07T17:19:55.889Z,13.51
2022-11-07T17:22:58.500Z,13.65
2022-11-07T17:26:02.595Z,13.63
2022-11-07T17:29:06.634Z,13.74
2022-11-07T17:32:09.125Z,13.64
2022-11-07T17:35:31.258Z,13.56
2022-11-07T17:38:34.484Z,13.47
2022-11-07T17:41:39.304Z,13.45
2022-11-07T17:44:42.045Z,13.65
2022-11-07T17:47:44.560Z,13.66
2022-11-07T17:50:47.821Z,13.63
2022-11-07T17:53:50.646Z,13.68
2022-11-07T17:56:54.461Z,13.50
2022-11-07T17:59:56.950Z,13.46
2022-11-07T18:02:59.451Z,13.50
2022-11-07T18:06:02.146Z,13.61
2022-11-07T18:09:06.198Z,13.66
2022-11-07T18:12:11.433Z,13.57
2022-11-07T18:15:13.994Z,13.49
2022-11-07T18:18:16.775Z,13.54
2022-11-07T18:21:19.959Z,13.44
2022-11-07T18:24:22.657Z,13.50
2022-11-07T18:27:26.523Z,13.50
2022-11-07T18:30:29.056Z,13.68
2022-11-07T18:33:31.678Z,13.49
2022-11-07T18:36:36.922Z,13.48
2022-11-07T18:39:39.728Z,13.54
2022-11-07T18:42:46.899Z,13.39
2022-11-07T18:45:49.638Z,13.45
2022-11-07T18:48:52.280Z,13.68
2022-11-07T18:51:54.950Z,13.60
2022-11-07T18:54:57.466Z,13.74
2022-11-07T18:58:01.393Z,13.79
2022-11-07T19:01:06.696Z,13.52
2022-11-07T19:04:11.364Z,13.47
2022-11-07T19:07:13.921Z,13.51
2022-11-07T19:10:17.983Z,13.48
2022-11-07T19:13:21.989Z,13.57
2022-11-07T19:16:25.090Z,13.53
2022-11-07T19:19:27.677Z,13.64
2022-11-07T19:22:31.410Z,13.56
2022-11-07T19:25:34.020Z,13.71
2022-11-07T19:28:38.387Z,13.78
2022-11-07T19:31:40.885Z,13.73
2022-11-07T19:34:43.405Z,13.65
2022-11-07T19:37:45.924Z,13.70
2022-11-07T19:40:49.748Z,13.73
2022-11-07T19:43:53.681Z,13.73
2022-11-07T19:46:56.193Z,13.69
2022-11-07T19:49:58.828Z,13.74
2022-11-07T19:53:01.339Z,13.66
2022-11-07T19:56:08.555Z,13.60
2022-11-07T19:59:12.442Z,13.79
2022-11-07T20:02:32.303Z,13.68
2022-11-07T20:05:38.504Z,13.79
2022-11-07T20:08:41.170Z,13.71
2022-11-07T20:11:43.768Z,13.46
2022-11-07T20:14:47.744Z,13.65
2022-11-07T20:17:50.324Z,13.70
2022-11-07T20:21:00.971Z,13.82
2022-11-07T20:24:05.356Z,13.71
2022-11-07T20:27:11.542Z,13.50
2022-11-07T20:30:15.693Z,13.58
2022-11-07T20:33:18.590Z,13.69
2022-11-07T20:36:21.934Z,13.56
2022-11-07T20:39:24.448Z,13.56
2022-11-07T20:42:26.949Z,13.48
2022-11-07T20:45:30.805Z,13.52
2022-11-07T20:48:34.032Z,13.43
2022-11-07T20:51:36.539Z,13.54
2022-11-07T20:54:39.035Z,13.39
2022-11-07T20:57:42.593Z,13.45
2022-11-07T21:00:47.163Z,13.40
2022-11-07T21:03:50.584Z,13.34
2022-11-07T21:06:53.136Z,13.47
2022-11-07T21:09:55.664Z,13.57
2022-11-07T21:12:58.302Z,13.46
2022-11-07T21:16:02.706Z,13.46
2022-11-07T21:19:05.832Z,13.49
2022-11-07T21:22:08.519Z,13.49
2022-11-07T21:25:11.411Z,13.45
2022-11-07T21:28:17.229Z,13.50
2022-11-07T21:31:24.203Z,13.43
2022-11-07T21:34:26.700Z,13.38
2022-11-07T21:37:29.445Z,13.48
2022-11-07T21:40:32.374Z,13.37
2022-11-07T21:43:34.885Z,13.38
2022-11-07T21:46:38.807Z,13.38
2022-11-07T21:49:41.307Z,13.56
2022-11-07T21:52:43.836Z,13.31
2022-11-07T21:55:46.325Z,13.48
2022-11-07T21:58:49.334Z,13.58
2022-11-07T22:01:55.118Z,13.58
2022-11-07T22:04:57.741Z,13.60
2022-11-07T22:08:00.229Z,13.69
2022-11-07T22:11:02.837Z,13.80
2022-11-07T22:14:05.854Z,13.67
2022-11-07T22:17:09.922Z,13.53
2022-11-07T22:20:13.417Z,13.57
2022-11-07T22:23:16.227Z,13.58
2022-11-07T22:26:21.066Z,13.75
2022-11-07T22:29:24.303Z,13.71
2022-11-07T22:32:28.131Z,13.69
2022-11-07T22:35:30.625Z,13.86
2022-11-07T22:38:34.038Z,13.66
2022-11-07T22:41:36.678Z,13.61
2022-11-07T22:44:39.171Z,13.60
2022-11-07T22:47:43.046Z,13.73
2022-11-07T22:50:45.944Z,13.80
2022-11-07T22:53:48.711Z,13.72
2022-11-07T22:56:51.229Z,13.62
2022-11-07T22:59:53.729Z,13.67
2022-11-07T23:02:58.589Z,13.65
2022-11-07T23:06:04.011Z,13.71
2022-11-07T23:09:06.628Z,13.66
2022-11-07T23:12:09.124Z,13.67
2022-11-07T23:15:11.922Z,13.74
2022-11-07T23:18:16.224Z,13.76
2022-11-07T23:21:20.394Z,13.78
2022-11-07T23:24:23.632Z,13.96
2022-11-07T23:27:26.131Z,13.78
2022-11-07T23:30:30.228Z,13.64
2022-11-07T23:33:36.607Z,13.55
2022-11-07T23:36:40.725Z,13.66
2022-11-07T23:39:43.640Z,13.83
2022-11-07T23:42:46.115Z,13.81
2022-11-07T23:46:06.276Z,13.85
2022-11-07T23:49:28.273Z,13.78
2022-11-07T23:52:30.766Z,13.63
2022-11-07T23:55:40.770Z,13.73
2022-11-07T23:59:00.756Z,13.50
